createdAt,value
2022-09-23T00:00:59.069Z,15.70
2022-09-23T00:03:28.346Z,15.70
2022-09-23T00:05:59.577Z,15.70
2022-09-23T00:08:26.595Z,15.70
2022-09-23T00:10:53.564Z,15.70
2022-09-23T00:13:20.443Z,15.70
2022-09-23T00:15:47.328Z,15.60
2022-09-23T00:18:14.272Z,15.70
2022-09-23T00:20:41.335Z,15.70
2022-09-23T00:23:08.193Z,15.60
2022-09-23T00:25:35.058Z,15.60
2022-09-23T00:28:03.303Z,15.60
2022-09-23T00:30:30.313Z,15.60
2022-09-23T00:32:57.207Z,15.60
2022-09-23T00:35:24.167Z,15.60
2022-09-23T00:37:51.207Z,15.60
2022-09-23T00:40:18.273Z,15.60
2022-09-23T00:42:49.222Z,15.60
2022-09-23T00:45:16.395Z,15.60
2022-09-23T00:47:48.232Z,15.60
2022-09-23T00:50:20.913Z,15.60
2022-09-23T00:52:49.173Z,15.70
2022-09-23T00:55:18.359Z,15.60
2022-09-23T00:57:45.218Z,15.50
2022-09-23T01:00:12.660Z,15.50
2022-09-23T01:02:39.639Z,15.50
2022-09-23T01:05:07.155Z,15.50
2022-09-23T01:07:34.927Z,15.50
2022-09-23T01:10:01.903Z,15.50
2022-09-23T01:12:59.686Z,15.40
2022-09-23T01:15:49.339Z,15.40
2022-09-23T01:18:28.110Z,15.30
2022-09-23T01:21:10.236Z,15.30
2022-09-23T01:24:08.016Z,15.30
2022-09-23T01:26:40.815Z,15.30
2022-09-23T01:29:25.815Z,15.30
2022-09-23T01:32:09.634Z,15.30
2022-09-23T01:34:42.861Z,15.30
2022-09-23T01:37:15.887Z,15.20
2022-09-23T01:39:45.589Z,15.20
2022-09-23T01:42:22.688Z,15.10
2022-09-23T01:44:57.349Z,15.10
2022-09-23T01:47:58.274Z,15.10
2022-09-23T01:50:46.723Z,15.10
2022-09-23T01:53:18.131Z,15.10
2022-09-23T01:55:48.597Z,15.20
2022-09-23T01:58:27.448Z,15.20
2022-09-23T02:01:02.350Z,15.20
2022-09-23T02:03:33.534Z,15.20
2022-09-23T02:06:04.318Z,15.20
2022-09-23T02:08:46.367Z,15.30
2022-09-23T02:11:15.382Z,15.30
2022-09-23T02:13:54.685Z,15.30
2022-09-23T02:16:41.438Z,15.20
2022-09-23T02:19:32.446Z,15.30
2022-09-23T02:22:10.876Z,15.30
2022-09-23T02:24:38.597Z,15.30
2022-09-23T02:27:20.154Z,15.30
2022-09-23T02:29:54.114Z,15.30
2022-09-23T02:32:32.605Z,15.30
2022-09-23T02:35:08.555Z,15.30
2022-09-23T02:37:48.199Z,15.30
2022-09-23T02:40:25.205Z,15.30
2022-09-23T02:43:01.743Z,15.30
2022-09-23T02:45:28.638Z,15.30
2022-09-23T02:47:59.258Z,15.30
2022-09-23T02:50:26.138Z,15.30
2022-09-23T02:52:52.971Z,15.30
2022-09-23T02:55:20.348Z,15.30
2022-09-23T02:57:48.309Z,15.30
2022-09-23T03:00:15.468Z,15.30
2022-09-23T03:03:27.418Z,15.30
2022-09-23T03:05:55.813Z,15.20
2022-09-23T03:08:48.499Z,15.20
2022-09-23T03:11:15.682Z,15.20
2022-09-23T03:14:07.272Z,15.20
2022-09-23T03:16:44.001Z,15.20
2022-09-23T03:19:19.064Z,15.20
2022-09-23T03:21:48.825Z,15.20
2022-09-23T03:24:15.655Z,15.20
2022-09-23T03:26:44.590Z,15.20
2022-09-23T03:29:11.534Z,15.20
2022-09-23T03:31:40.170Z,15.20
2022-09-23T03:34:27.977Z,15.10
2022-09-23T03:37:03.636Z,15.10
2022-09-23T03:39:40.311Z,15.10
2022-09-23T03:42:12.913Z,15.10
2022-09-23T03:44:45.796Z,15.10
2022-09-23T03:47:14.633Z,15.10
2022-09-23T03:49:45.782Z,15.10
2022-09-23T03:52:12.731Z,15.10
2022-09-23T03:54:39.671Z,15.10
2022-09-23T03:57:07.339Z,15.10
2022-09-23T03:59:34.239Z,15.10
2022-09-23T04:02:02.044Z,15.10
2022-09-23T04:04:29.460Z,15.10
2022-09-23T04:06:56.341Z,15.10
2022-09-23T04:09:23.522Z,15.10
2022-09-23T04:11:50.985Z,15.10
2022-09-23T04:14:18.306Z,15.00
2022-09-23T04:16:45.497Z,15.10
2022-09-23T04:19:12.842Z,15.00
2022-09-23T04:21:40.164Z,15.00
2022-09-23T04:24:07.284Z,15.00
2022-09-23T04:26:35.713Z,15.00
2022-09-23T04:29:04.958Z,14.90
2022-09-23T04:31:32.571Z,14.90
2022-09-23T04:33:59.716Z,14.90
2022-09-23T04:36:26.579Z,15.00
2022-09-23T04:38:53.554Z,15.00
2022-09-23T04:41:21.170Z,15.00
2022-09-23T04:43:48.028Z,15.00
2022-09-23T04:46:15.502Z,15.00
2022-09-23T04:48:42.879Z,15.10
2022-09-23T04:51:17.990Z,15.00
2022-09-23T04:53:45.844Z,15.10
2022-09-23T04:56:22.385Z,15.00
2022-09-23T04:58:49.529Z,15.00
2022-09-23T05:01:27.295Z,15.10
2022-09-23T05:03:59.130Z,15.00
2022-09-23T05:06:26.021Z,15.00
2022-09-23T05:08:54.247Z,15.00
2022-09-23T05:11:21.285Z,15.00
2022-09-23T05:13:48.594Z,15.00
2022-09-23T05:16:15.581Z,15.00
2022-09-23T05:18:43.975Z,15.00
2022-09-23T05:21:12.020Z,15.00
2022-09-23T05:23:39.895Z,15.00
2022-09-23T05:26:08.331Z,15.00
2022-09-23T05:28:35.270Z,15.10
2022-09-23T05:31:09.293Z,15.00
2022-09-23T05:33:36.762Z,15.10
2022-09-23T05:36:03.808Z,15.10
2022-09-23T05:38:31.022Z,15.10
2022-09-23T05:41:04.683Z,15.10
2022-09-23T05:43:31.611Z,15.10
2022-09-23T05:46:07.197Z,15.10
2022-09-23T05:48:35.427Z,15.10
2022-09-23T05:51:02.506Z,15.10
2022-09-23T05:53:30.007Z,15.20
2022-09-23T05:55:57.478Z,15.20
2022-09-23T05:58:24.680Z,15.30
2022-09-23T06:00:51.701Z,15.30
2022-09-23T06:03:19.839Z,15.30
2022-09-23T06:05:46.995Z,15.30
2022-09-23T06:08:13.963Z,15.40
2022-09-23T06:10:42.287Z,15.40
2022-09-23T06:13:09.204Z,15.40
2022-09-23T06:15:36.757Z,15.50
2022-09-23T06:18:04.108Z,15.50
2022-09-23T06:20:31.108Z,15.40
2022-09-23T06:23:09.246Z,15.50
2022-09-23T06:25:38.556Z,15.50
2022-09-23T06:28:07.580Z,15.50
2022-09-23T06:30:34.909Z,15.40
2022-09-23T06:33:02.411Z,15.40
2022-09-23T06:35:29.363Z,15.40
2022-09-23T06:37:56.309Z,15.40
2022-09-23T06:40:23.352Z,15.40
2022-09-23T06:42:57.734Z,15.40
2022-09-23T06:45:24.793Z,15.50
2022-09-23T06:47:58.592Z,15.50
2022-09-23T06:50:26.434Z,15.40
2022-09-23T06:52:56.119Z,15.50
2022-09-23T06:55:24.386Z,15.50
2022-09-23T06:57:51.447Z,15.50
2022-09-23T07:00:18.482Z,15.60
2022-09-23T07:02:45.596Z,15.50
2022-09-23T07:05:12.708Z,15.60
2022-09-23T07:07:39.634Z,15.60
2022-09-23T07:10:06.968Z,15.70
2022-09-23T07:12:34.119Z,15.70
2022-09-23T07:15:01.080Z,15.70
2022-09-23T07:17:28.034Z,15.70
2022-09-23T07:19:58.534Z,15.70
2022-09-23T07:22:26.551Z,15.70
2022-09-23T07:24:56.512Z,15.70
2022-09-23T07:27:27.048Z,15.70
2022-09-23T07:29:54.929Z,15.80
2022-09-23T07:32:22.381Z,15.80
2022-09-23T07:34:49.429Z,15.80
2022-09-23T07:37:16.648Z,15.90
2022-09-23T07:39:44.028Z,15.80
2022-09-23T07:42:13.341Z,15.80
2022-09-23T07:44:43.328Z,15.90
2022-09-23T07:47:10.293Z,15.80
2022-09-23T07:49:37.341Z,15.90
2022-09-23T07:52:04.943Z,15.90
2022-09-23T07:54:31.947Z,16.00
2022-09-23T07:56:59.457Z,16.00
2022-09-23T07:59:27.371Z,16.00
2022-09-23T08:01:54.513Z,16.00
2022-09-23T08:04:22.499Z,16.00
2022-09-23T08:07:00.317Z,16.00
2022-09-23T08:09:32.104Z,16.00
2022-09-23T08:11:59.054Z,16.00
2022-09-23T08:14:26.113Z,16.10
2022-09-23T08:16:54.241Z,16.10
2022-09-23T08:19:21.164Z,16.10
2022-09-23T08:21:48.469Z,16.10
2022-09-23T08:24:17.045Z,16.10
2022-09-23T08:26:44.578Z,16.10
2022-09-23T08:29:17.864Z,16.20
2022-09-23T08:31:44.826Z,16.20
2022-09-23T08:34:11.879Z,16.20
2022-09-23T08:36:38.751Z,16.20
2022-09-23T08:39:05.874Z,16.30
2022-09-23T08:41:35.890Z,16.30
2022-09-23T08:44:25.291Z,16.30
2022-09-23T08:47:15.125Z,16.40
2022-09-23T08:50:00.843Z,16.40
2022-09-23T08:52:41.349Z,16.50
2022-09-23T08:55:13.886Z,16.50
2022-09-23T08:58:24.503Z,16.60
2022-09-23T09:01:23.029Z,16.60
2022-09-23T09:03:52.562Z,16.60
2022-09-23T09:06:31.133Z,16.60
2022-09-23T09:09:01.006Z,16.60
2022-09-23T09:11:36.155Z,16.70
2022-09-23T09:14:19.682Z,16.80
2022-09-23T09:17:08.271Z,16.90
2022-09-23T09:19:57.635Z,16.90
2022-09-23T09:22:52.713Z,17.00
2022-09-23T09:25:33.475Z,17.10
2022-09-23T09:28:01.484Z,17.10
2022-09-23T09:30:28.476Z,17.20
2022-09-23T09:33:02.178Z,17.30
2022-09-23T09:35:51.139Z,17.30
2022-09-23T09:38:19.445Z,17.30
2022-09-23T09:40:47.173Z,17.30
2022-09-23T09:43:23.540Z,17.20
2022-09-23T09:46:05.071Z,16.90
2022-09-23T09:49:23.347Z,16.70
2022-09-23T09:52:19.635Z,16.50
2022-09-23T09:54:46.535Z,16.40
2022-09-23T09:57:33.584Z,16.40
2022-09-23T10:00:18.953Z,16.40
2022-09-23T10:02:45.986Z,16.50
2022-09-23T10:05:34.722Z,16.50
2022-09-23T10:08:32.362Z,16.40
2022-09-23T10:10:59.166Z,16.30
2022-09-23T10:13:26.596Z,16.30
2022-09-23T10:15:56.742Z,16.30
2022-09-23T10:18:47.294Z,16.40
2022-09-23T10:21:15.425Z,16.50
2022-09-23T10:23:46.606Z,16.50
2022-09-23T10:26:14.046Z,16.60
2022-09-23T10:28:51.523Z,16.60
2022-09-23T10:31:26.581Z,16.60
2022-09-23T10:33:55.729Z,16.70
2022-09-23T10:36:22.626Z,16.70
2022-09-23T10:38:51.209Z,16.70
2022-09-23T10:41:58.172Z,16.70
2022-09-23T10:44:55.615Z,16.70
2022-09-23T10:47:36.767Z,16.70
2022-09-23T10:50:11.294Z,16.70
2022-09-23T10:53:02.985Z,16.70
2022-09-23T10:55:57.986Z,16.70
2022-09-23T10:58:27.936Z,16.50
2022-09-23T11:01:09.980Z,16.50
2022-09-23T11:04:01.387Z,16.50
2022-09-23T11:06:44.722Z,16.40
2022-09-23T11:09:30.887Z,16.50
2022-09-23T11:12:07.447Z,16.60
2022-09-23T11:14:53.103Z,16.70
2022-09-23T11:17:25.930Z,16.80
2022-09-23T11:20:01.568Z,16.90
2022-09-23T11:22:46.654Z,17.10
2022-09-23T11:25:34.534Z,17.00
2022-09-23T11:28:20.435Z,17.10
2022-09-23T11:30:54.051Z,17.20
2022-09-23T11:33:56.600Z,17.30
2022-09-23T11:37:04.123Z,17.30
2022-09-23T11:39:35.177Z,17.40
2022-09-23T11:42:02.081Z,17.40
2022-09-23T11:44:39.824Z,17.40
2022-09-23T11:47:22.238Z,17.40
2022-09-23T11:49:57.479Z,17.40
2022-09-23T11:52:36.055Z,17.50
2022-09-23T11:55:20.880Z,17.50
2022-09-23T11:57:50.625Z,17.50
2022-09-23T12:00:22.489Z,17.60
2022-09-23T12:03:13.444Z,17.60
2022-09-23T12:05:44.797Z,17.80
2022-09-23T12:08:29.165Z,17.90
2022-09-23T12:11:06.124Z,18.10
2022-09-23T12:13:44.462Z,18.20
2022-09-23T12:16:25.712Z,18.30
2022-09-23T12:19:34.770Z,18.20
2022-09-23T12:22:27.892Z,18.40
2022-09-23T12:24:57.671Z,18.40
2022-09-23T12:27:32.427Z,18.50
2022-09-23T12:30:04.639Z,18.30
2022-09-23T12:32:31.787Z,18.30
2022-09-23T12:34:58.655Z,18.30
2022-09-23T12:37:36.148Z,18.30
2022-09-23T12:40:16.789Z,18.40
2022-09-23T12:42:44.483Z,18.50
2022-09-23T12:45:34.730Z,18.50
2022-09-23T12:48:22.696Z,18.60
2022-09-23T12:51:15.947Z,18.50
2022-09-23T12:53:52.762Z,18.30
2022-09-23T12:56:27.170Z,18.30
2022-09-23T12:59:00.919Z,18.30
2022-09-23T13:01:27.992Z,18.30
2022-09-23T13:04:15.719Z,18.20
2022-09-23T13:06:58.881Z,18.10
2022-09-23T13:09:30.659Z,18.10
2022-09-23T13:11:59.980Z,18.00
2022-09-23T13:14:27.800Z,18.10
2022-09-23T13:16:55.421Z,18.30
2022-09-23T13:19:28.340Z,18.30
2022-09-23T13:22:09.341Z,18.70
2022-09-23T13:24:43.698Z,18.80
2022-09-23T13:27:22.040Z,18.80
2022-09-23T13:30:07.812Z,18.70
2022-09-23T13:32:39.925Z,18.80
2022-09-23T13:35:13.099Z,18.90
2022-09-23T13:37:47.623Z,19.10
2022-09-23T13:40:28.937Z,19.20
2022-09-23T13:43:07.246Z,19.30
2022-09-23T13:45:37.493Z,19.30
2022-09-23T13:48:10.657Z,19.30
2022-09-23T13:50:38.895Z,19.30
2022-09-23T13:53:10.628Z,19.10
2022-09-23T13:55:38.944Z,19.00
2022-09-23T13:58:19.950Z,18.90
2022-09-23T14:00:46.957Z,19.00
2022-09-23T14:03:36.779Z,19.00
2022-09-23T14:06:13.052Z,19.20
2022-09-23T14:08:41.435Z,19.40
2022-09-23T14:11:08.296Z,19.40
2022-09-23T14:13:40.735Z,19.60
2022-09-23T14:16:10.055Z,19.60
2022-09-23T14:18:39.137Z,19.60
2022-09-23T14:21:06.422Z,19.50
2022-09-23T14:23:33.349Z,19.50
2022-09-23T14:26:00.937Z,19.50
2022-09-23T14:28:28.090Z,19.50
2022-09-23T14:30:57.676Z,19.50
2022-09-23T14:33:30.728Z,19.30
2022-09-23T14:36:09.081Z,19.20
2022-09-23T14:38:50.939Z,19.10
2022-09-23T14:41:23.840Z,19.10
2022-09-23T14:44:01.387Z,18.90
2022-09-23T14:46:34.263Z,18.80
2022-09-23T14:49:11.107Z,18.80
2022-09-23T14:51:42.819Z,18.90
2022-09-23T14:54:37.160Z,18.90
2022-09-23T14:57:25.562Z,19.00
2022-09-23T15:00:12.411Z,18.80
2022-09-23T15:02:42.384Z,18.90
2022-09-23T15:05:18.948Z,19.00
2022-09-23T15:07:53.056Z,19.00
2022-09-23T15:10:31.897Z,19.00
2022-09-23T15:13:09.783Z,19.00
2022-09-23T15:15:36.739Z,18.90
2022-09-23T15:18:05.149Z,19.00
2022-09-23T15:20:32.099Z,18.90
2022-09-23T15:22:59.044Z,19.00
2022-09-23T15:25:30.159Z,18.90
2022-09-23T15:28:12.297Z,18.90
2022-09-23T15:30:39.432Z,18.90
2022-09-23T15:33:06.515Z,18.80
2022-09-23T15:35:33.488Z,18.70
2022-09-23T15:38:01.797Z,18.70
2022-09-23T15:40:30.518Z,18.60
2022-09-23T15:43:01.537Z,18.60
2022-09-23T15:45:34.350Z,18.50
2022-09-23T15:48:06.121Z,18.50
2022-09-23T15:50:36.966Z,18.50
2022-09-23T15:53:04.859Z,18.50
2022-09-23T15:55:32.098Z,18.60
2022-09-23T15:57:59.143Z,18.70
2022-09-23T16:00:26.051Z,18.70
2022-09-23T16:02:54.220Z,18.80
2022-09-23T16:05:22.017Z,18.70
2022-09-23T16:07:52.259Z,18.70
2022-09-23T16:10:20.719Z,18.70
2022-09-23T16:12:47.821Z,18.70
2022-09-23T16:15:17.180Z,18.70
2022-09-23T16:17:44.979Z,18.70
2022-09-23T16:20:12.614Z,18.60
2022-09-23T16:22:39.461Z,18.60
2022-09-23T16:25:08.738Z,18.50
2022-09-23T16:27:35.719Z,18.50
2022-09-23T16:30:02.904Z,18.40
2022-09-23T16:32:29.923Z,18.40
2022-09-23T16:34:58.668Z,18.40
2022-09-23T16:37:25.581Z,18.40
2022-09-23T16:39:52.413Z,18.20
2022-09-23T16:42:19.443Z,18.20
2022-09-23T16:44:46.359Z,18.10
2022-09-23T16:47:13.286Z,18.10
2022-09-23T16:49:41.376Z,18.10
2022-09-23T16:52:09.182Z,18.00
2022-09-23T16:54:37.476Z,17.90
2022-09-23T16:57:04.382Z,17.80
2022-09-23T16:59:51.183Z,17.80
2022-09-23T17:02:36.910Z,17.80
2022-09-23T17:05:04.119Z,17.70
2022-09-23T17:07:32.031Z,17.70
2022-09-23T17:09:58.976Z,17.70
2022-09-23T17:12:27.876Z,17.70
2022-09-23T17:14:54.824Z,17.70
2022-09-23T17:17:22.297Z,17.60
2022-09-23T17:19:49.161Z,17.60
2022-09-23T17:22:15.995Z,17.50
2022-09-23T17:24:42.958Z,17.50
2022-09-23T17:27:09.994Z,17.40
2022-09-23T17:29:36.881Z,17.30
2022-09-23T17:32:05.022Z,17.30
2022-09-23T17:34:33.492Z,17.20
2022-09-23T17:37:00.713Z,17.10
2022-09-23T17:39:27.619Z,17.10
2022-09-23T17:41:57.319Z,17.00
2022-09-23T17:44:24.280Z,16.90
2022-09-23T17:46:51.198Z,16.90
2022-09-23T17:49:18.293Z,16.80
2022-09-23T17:51:45.217Z,16.80
2022-09-23T17:54:12.193Z,16.70
2022-09-23T17:56:39.086Z,16.70
2022-09-23T17:59:05.999Z,16.60
2022-09-23T18:01:32.945Z,16.60
2022-09-23T18:04:00.940Z,16.60
2022-09-23T18:06:29.465Z,16.60
2022-09-23T18:08:56.420Z,16.60
2022-09-23T18:11:27.780Z,16.60
2022-09-23T18:14:18.800Z,16.60
2022-09-23T18:16:47.577Z,16.60
2022-09-23T18:19:16.018Z,16.60
2022-09-23T18:21:47.050Z,16.60
2022-09-23T18:27:01.309Z,16.60
2022-09-23T18:29:28.754Z,16.60
2022-09-23T18:31:55.775Z,16.60
2022-09-23T18:34:23.325Z,16.60
2022-09-23T18:36:50.489Z,16.70
2022-09-23T18:39:17.490Z,16.70
2022-09-23T18:41:44.383Z,16.70
2022-09-23T18:44:11.394Z,16.70
2022-09-23T18:46:38.363Z,16.70
2022-09-23T18:49:23.703Z,16.70
2022-09-23T18:51:55.761Z,16.70
2022-09-23T18:54:23.659Z,16.70
2022-09-23T18:56:52.672Z,16.70
2022-09-23T18:59:20.927Z,16.70
2022-09-23T19:01:49.634Z,16.70
2022-09-23T19:04:18.088Z,16.70
2022-09-23T19:06:54.851Z,16.70
2022-09-23T19:09:21.842Z,16.70
2022-09-23T19:11:51.742Z,16.60
2022-09-23T19:14:18.603Z,16.70
2022-09-23T19:16:45.434Z,16.70
2022-09-23T19:19:12.323Z,16.70
2022-09-23T19:21:39.193Z,16.60
2022-09-23T19:24:07.435Z,16.60
2022-09-23T19:26:38.779Z,16.60
2022-09-23T19:29:08.177Z,16.60
2022-09-23T19:31:40.578Z,16.60
2022-09-23T19:34:29.393Z,16.60
2022-09-23T19:36:57.543Z,16.60
2022-09-23T19:39:26.879Z,16.50
2022-09-23T19:41:56.023Z,16.50
2022-09-23T19:44:24.371Z,16.50
2022-09-23T19:46:55.958Z,16.50
2022-09-23T19:49:24.833Z,16.50
2022-09-23T19:51:52.073Z,16.50
2022-09-23T19:54:21.703Z,16.50
2022-09-23T19:56:50.015Z,16.40
2022-09-23T19:59:19.013Z,16.40
2022-09-23T20:01:49.725Z,16.40
2022-09-23T20:04:16.987Z,16.40
2022-09-23T20:06:44.017Z,16.40
2022-09-23T20:09:10.955Z,16.30
2022-09-23T20:11:38.108Z,16.30
2022-09-23T20:14:06.399Z,16.30
2022-09-23T20:16:35.141Z,16.30
2022-09-23T20:19:03.009Z,16.30
2022-09-23T20:21:30.126Z,16.30
2022-09-23T20:23:57.975Z,16.30
2022-09-23T20:26:43.401Z,16.30
2022-09-23T20:29:11.123Z,16.30
2022-09-23T20:31:40.510Z,16.30
2022-09-23T20:34:08.355Z,16.30
2022-09-23T20:36:36.348Z,16.20
2022-09-23T20:39:06.031Z,16.30
2022-09-23T20:41:37.481Z,16.20
2022-09-23T20:44:06.491Z,16.20
2022-09-23T20:46:34.370Z,16.10
2022-09-23T20:49:02.100Z,16.00
2022-09-23T20:51:29.355Z,16.00
2022-09-23T20:53:56.584Z,16.00
2022-09-23T20:56:24.021Z,16.00
2022-09-23T20:58:52.633Z,16.00
2022-09-23T21:01:20.322Z,16.00
2022-09-23T21:03:48.647Z,15.90
2022-09-23T21:06:16.609Z,15.90
2022-09-23T21:08:44.563Z,15.80
2022-09-23T21:11:13.351Z,15.70
2022-09-23T21:13:40.460Z,15.70
2022-09-23T21:16:10.227Z,15.70
2022-09-23T21:18:38.168Z,15.70
2022-09-23T21:21:06.011Z,15.60
2022-09-23T21:23:38.297Z,15.60
2022-09-23T21:26:10.623Z,15.50
2022-09-23T21:28:42.078Z,15.40
2022-09-23T21:31:23.096Z,15.40
2022-09-23T21:33:59.044Z,15.40
2022-09-23T21:36:28.272Z,15.40
2022-09-23T21:38:59.065Z,15.40
2022-09-23T21:41:25.922Z,15.40
2022-09-23T21:43:53.114Z,15.30
2022-09-23T21:46:20.701Z,15.30
2022-09-23T21:48:53.675Z,15.20
2022-09-23T21:51:42.744Z,15.20
2022-09-23T21:54:14.435Z,15.20
2022-09-23T21:56:41.693Z,15.10
2022-09-23T21:59:08.584Z,15.10
2022-09-23T22:01:37.694Z,15.10
2022-09-23T22:04:08.190Z,15.10
2022-09-23T22:06:37.589Z,15.00
2022-09-23T22:09:08.898Z,15.00
2022-09-23T22:11:55.165Z,15.00
2022-09-23T22:14:26.041Z,14.90
2022-09-23T22:16:57.504Z,14.90
2022-09-23T22:19:26.263Z,14.90
2022-09-23T22:21:53.990Z,14.90
2022-09-23T22:24:20.858Z,14.90
2022-09-23T22:26:47.742Z,14.90
2022-09-23T22:29:33.587Z,14.80
2022-09-23T22:32:19.569Z,14.80
2022-09-23T22:34:49.923Z,14.80
2022-09-23T22:37:28.770Z,14.80
2022-09-23T22:39:56.015Z,14.70
2022-09-23T22:42:22.944Z,14.60
2022-09-23T22:44:50.429Z,14.50
2022-09-23T22:47:20.419Z,14.50
2022-09-23T22:49:47.800Z,14.50
2022-09-23T22:52:16.314Z,14.50
2022-09-23T22:54:43.400Z,14.40
2022-09-23T22:57:10.299Z,14.40
2022-09-23T22:59:40.230Z,14.30
2022-09-23T23:02:08.180Z,14.30
2022-09-23T23:04:37.220Z,14.30
2022-09-23T23:07:06.054Z,14.20
2022-09-23T23:09:32.961Z,14.20
2022-09-23T23:11:59.867Z,14.10
2022-09-23T23:14:28.015Z,14.10
2022-09-23T23:16:55.153Z,14.00
2022-09-23T23:19:22.090Z,14.00
2022-09-23T23:21:49.620Z,14.00
2022-09-23T23:24:17.237Z,13.90
2022-09-23T23:26:44.307Z,13.90
2022-09-23T23:29:12.194Z,13.80
2022-09-23T23:31:39.575Z,13.80
2022-09-23T23:34:08.430Z,13.70
2022-09-23T23:36:35.352Z,13.70
2022-09-23T23:39:02.314Z,13.70
2022-09-23T23:41:29.215Z,13.60
2022-09-23T23:43:59.948Z,13.60
2022-09-23T23:46:28.409Z,13.60
2022-09-23T23:48:55.551Z,13.50
2022-09-23T23:51:23.077Z,13.50
2022-09-23T23:53:50.002Z,13.40
2022-09-23T23:56:18.499Z,13.40
2022-09-23T23:58:45.446Z,13.30
